Time;durP1;ratioP1;P1;durP2;ratioP2;P2;SDS_P1;SDS_P2;PMS_P1;PMS_P2;Temp;Humidity;BMP_temperature;BMP_pressure;BME280_temperature;BME280_humidity;BME280_pressure;Samples;Min_cycle;Max_cycle;Signal;HPM_P1;HPM_P2
2022/03/18 00:01:52;;;;;;;10.40;8.13;;;7.40;90.40;;;;;;5040420;28;20454;-63
2022/03/18 00:04:19;;;;;;;12.03;9.30;;;7.30;90.50;;;;;;5040447;28;20509;-62
2022/03/18 00:06:45;;;;;;;8.87;7.93;;;7.30;90.60;;;;;;5039564;28;20967;-63
2022/03/18 00:09:12;;;;;;;9.03;7.93;;;7.30;90.70;;;;;;5041187;28;20449;-63
2022/03/18 00:11:39;;;;;;;10.07;8.80;;;7.30;90.70;;;;;;5042130;28;20964;-63
2022/03/18 00:14:06;;;;;;;9.40;8.40;;;7.20;90.60;;;;;;5042323;28;20469;-63
2022/03/18 00:16:32;;;;;;;8.93;8.10;;;7.20;90.50;;;;;;5045039;28;20452;-63
2022/03/18 00:19:01;;;;;;;9.00;8.10;;;7.20;90.60;;;;;;5039623;28;20454;-62
2022/03/18 00:21:27;;;;;;;8.67;7.73;;;7.20;90.70;;;;;;5037543;28;20447;-63
2022/03/18 00:23:54;;;;;;;10.10;8.40;;;7.20;90.70;;;;;;5036815;28;20450;-62
2022/03/18 00:26:21;;;;;;;10.67;8.10;;;7.10;90.80;;;;;;5037497;28;20851;-63
2022/03/18 00:28:48;;;;;;;9.70;7.40;;;7.10;90.80;;;;;;5037425;28;20553;-63
2022/03/18 00:31:14;;;;;;;9.40;7.97;;;7.10;90.80;;;;;;5037178;28;20449;-63
2022/03/18 00:33:41;;;;;;;8.33;7.53;;;7.00;90.80;;;;;;5037935;28;20457;-63
2022/03/18 00:36:09;;;;;;;8.83;7.93;;;7.00;90.80;;;;;;5037809;28;20549;-63
2022/03/18 00:38:36;;;;;;;9.77;8.07;;;7.00;90.90;;;;;;5039626;28;20492;-63
2022/03/18 00:41:03;;;;;;;9.63;7.20;;;7.00;90.90;;;;;;5043183;28;20453;-63
2022/03/18 00:43:29;;;;;;;8.43;7.63;;;7.00;91.00;;;;;;5044265;28;20450;-63
2022/03/18 00:45:56;;;;;;;9.43;8.00;;;6.90;90.90;;;;;;5042872;28;20477;-63
2022/03/18 00:53:55;;;;;;;10.60;7.80;;;6.80;90.90;;;;;;5037099;28;20442;-62
2022/03/18 00:56:22;;;;;;;9.07;8.17;;;6.80;91.00;;;;;;5036656;28;20435;-62
2022/03/18 00:58:48;;;;;;;8.53;7.73;;;6.80;90.90;;;;;;5037381;28;20439;-62
2022/03/18 01:01:15;;;;;;;11.30;9.27;;;6.80;91.00;;;;;;5036810;28;20450;-63
2022/03/18 01:03:42;;;;;;;8.50;7.40;;;6.70;90.90;;;;;;5036677;28;20445;-63
2022/03/18 01:06:10;;;;;;;14.67;8.23;;;6.70;90.80;;;;;;5036674;28;20477;-63
2022/03/18 01:08:37;;;;;;;10.17;7.90;;;6.70;90.90;;;;;;5036105;28;20486;-62
2022/03/18 01:11:04;;;;;;;8.13;7.33;;;6.70;90.90;;;;;;5037065;28;20462;-63
2022/03/18 01:13:31;;;;;;;9.10;7.13;;;6.70;90.90;;;;;;5036507;28;20450;-63
2022/03/18 01:15:58;;;;;;;9.23;8.30;;;6.60;90.80;;;;;;5037226;28;20473;-62
2022/03/18 01:18:25;;;;;;;8.93;7.93;;;6.60;91.00;;;;;;5038103;28;20493;-62
2022/03/18 01:20:52;;;;;;;10.13;8.20;;;6.60;90.90;;;;;;5038958;28;20917;-62
2022/03/18 01:23:20;;;;;;;8.33;7.60;;;6.50;90.90;;;;;;5037878;28;20493;-62
2022/03/18 01:25:47;;;;;;;8.97;7.87;;;6.50;91.00;;;;;;5037162;28;20475;-62
2022/03/18 01:28:14;;;;;;;8.93;8.03;;;6.50;91.00;;;;;;5038199;28;20490;-62
2022/03/18 01:30:41;;;;;;;10.30;7.50;;;6.50;91.00;;;;;;5037837;28;20856;-62
2022/03/18 01:33:07;;;;;;;8.83;7.93;;;6.50;91.30;;;;;;5037018;28;20450;-62
2022/03/18 01:35:34;;;;;;;12.77;7.40;;;6.50;90.90;;;;;;5036110;28;20470;-62
2022/03/18 01:38:01;;;;;;;9.40;8.03;;;6.50;90.80;;;;;;5037127;28;20451;-62
2022/03/18 01:40:29;;;;;;;11.77;8.10;;;6.50;90.70;;;;;;5036940;28;20451;-63
2022/03/18 01:42:56;;;;;;;10.00;9.00;;;6.40;90.70;;;;;;5036152;28;20457;-63
2022/03/18 01:45:22;;;;;;;9.03;8.13;;;6.40;90.70;;;;;;5036178;28;20477;-63
2022/03/18 01:47:49;;;;;;;9.30;8.03;;;6.40;90.70;;;;;;5035901;28;21035;-63
2022/03/18 01:50:16;;;;;;;10.40;8.03;;;6.40;90.70;;;;;;5036444;28;20454;-63
2022/03/18 01:52:45;;;;;;;9.73;7.60;;;6.40;90.70;;;;;;5034898;28;21003;-62
2022/03/18 01:55:13;;;;;;;9.93;8.00;;;6.40;90.70;;;;;;5036147;28;20470;-62
2022/03/18 01:57:43;;;;;;;14.93;7.60;;;6.30;90.60;;;;;;5036211;28;20879;-62
2022/03/18 02:00:11;;;;;;;8.73;7.80;;;6.40;90.70;;;;;;5036542;28;20540;-62
2022/03/18 02:02:38;;;;;;;8.13;7.33;;;6.30;90.60;;;;;;5037125;28;20492;-62
2022/03/18 02:05:05;;;;;;;9.10;8.10;;;6.30;90.60;;;;;;5038147;28;20466;-62
2022/03/18 02:07:32;;;;;;;8.17;7.37;;;6.30;90.60;;;;;;5039009;28;20482;-62
2022/03/18 02:09:59;;;;;;;8.90;7.37;;;6.30;90.60;;;;;;5039029;28;20827;-62
2022/03/18 02:12:26;;;;;;;10.93;7.03;;;6.20;90.60;;;;;;5038795;28;20433;-62
2022/03/18 02:14:54;;;;;;;9.63;8.20;;;6.20;90.60;;;;;;5039071;28;20485;-62
2022/03/18 02:17:21;;;;;;;13.90;8.40;;;6.20;90.60;;;;;;5039781;28;20453;-62
2022/03/18 02:19:48;;;;;;;8.47;7.60;;;6.10;90.40;;;;;;5039235;28;20450;-62
2022/03/18 02:22:19;;;;;;;8.40;7.33;;;6.10;90.40;;;;;;5039882;28;20465;-62
2022/03/18 02:24:49;;;;;;;8.77;7.87;;;6.10;90.50;;;;;;5039451;28;20473;-62
2022/03/18 02:27:16;;;;;;;9.90;7.60;;;6.00;90.60;;;;;;5039191;28;20442;-62
2022/03/18 02:29:44;;;;;;;8.47;7.60;;;6.00;90.60;;;;;;5038908;28;20476;-62
2022/03/18 02:32:12;;;;;;;9.20;7.93;;;6.00;90.70;;;;;;5039058;28;20450;-62
2022/03/18 02:34:40;;;;;;;12.10;8.63;;;5.90;90.70;;;;;;5039476;28;20474;-62
2022/03/18 02:37:08;;;;;;;8.30;7.33;;;5.90;90.80;;;;;;5039047;28;20459;-62
2022/03/18 02:39:35;;;;;;;8.97;7.67;;;5.90;90.80;;;;;;5038675;28;20446;-62
2022/03/18 02:42:04;;;;;;;13.97;8.40;;;5.90;90.80;;;;;;5038554;28;20457;-62
2022/03/18 02:44:32;;;;;;;8.80;7.40;;;5.90;90.80;;;;;;5037974;28;20464;-62
2022/03/18 02:46:59;;;;;;;9.50;8.63;;;5.90;90.80;;;;;;5040689;28;20454;-62
2022/03/18 02:49:26;;;;;;;8.73;7.60;;;5.80;90.80;;;;;;5045053;28;20497;-63
2022/03/18 02:51:53;;;;;;;8.80;8.00;;;5.80;90.80;;;;;;5043942;28;20465;-62
2022/03/18 02:54:20;;;;;;;9.60;7.90;;;5.80;90.80;;;;;;5040186;28;20470;-63
2022/03/18 02:56:47;;;;;;;14.87;8.30;;;5.80;90.80;;;;;;5040357;28;20541;-62
2022/03/18 02:59:15;;;;;;;8.37;7.50;;;5.80;90.90;;;;;;5040118;28;20865;-62
2022/03/18 03:01:42;;;;;;;8.87;7.97;;;5.80;91.00;;;;;;5038691;28;20461;-62
2022/03/18 03:04:08;;;;;;;10.40;9.20;;;5.80;91.00;;;;;;5039158;28;20477;-62
2022/03/18 03:09:19;;;;;;;8.37;7.57;;;5.80;90.80;;;;;;5040973;28;20481;-62
2022/03/18 03:11:46;;;;;;;11.10;7.13;;;5.80;90.80;;;;;;5041210;28;20508;-62
2022/03/18 03:14:15;;;;;;;8.90;6.70;;;5.80;90.70;;;;;;5042070;28;20485;-62
2022/03/18 03:16:42;;;;;;;9.17;7.10;;;5.80;90.70;;;;;;5041317;28;20435;-62
2022/03/18 03:19:09;;;;;;;8.13;7.17;;;5.70;90.60;;;;;;5042099;28;20833;-62
2022/03/18 03:21:37;;;;;;;9.50;7.23;;;5.70;90.70;;;;;;5042041;28;21011;-62
2022/03/18 03:24:04;;;;;;;11.73;9.17;;;5.70;90.70;;;;;;5042478;28;21003;-62
2022/03/18 03:26:31;;;;;;;9.30;7.70;;;5.60;90.50;;;;;;5041839;28;20473;-62
2022/03/18 03:28:58;;;;;;;8.40;7.27;;;5.60;90.60;;;;;;5041824;28;20494;-62
2022/03/18 03:31:26;;;;;;;10.93;7.50;;;5.50;90.70;;;;;;5041037;28;20973;-62
2022/03/18 03:33:53;;;;;;;8.73;7.83;;;5.50;90.80;;;;;;5041547;28;20457;-62
2022/03/18 03:36:20;;;;;;;10.73;8.60;;;5.50;90.80;;;;;;5041516;28;20454;-62
2022/03/18 03:38:46;;;;;;;10.10;8.30;;;5.50;90.90;;;;;;5039447;28;20537;-62
2022/03/18 03:41:13;;;;;;;10.23;7.33;;;5.50;91.10;;;;;;5039353;28;20457;-62
2022/03/18 03:43:41;;;;;;;10.60;7.87;;;5.60;91.10;;;;;;5040361;28;20529;-62
2022/03/18 03:46:08;;;;;;;8.33;7.00;;;5.60;91.00;;;;;;5040190;28;20662;-63
2022/03/18 03:48:36;;;;;;;8.23;7.43;;;5.60;91.00;;;;;;5040276;28;20478;-62
2022/03/18 03:51:03;;;;;;;11.93;7.23;;;5.60;90.90;;;;;;5040130;28;20828;-63
2022/03/18 03:53:29;;;;;;;9.03;7.00;;;5.50;90.90;;;;;;5039864;28;20522;-62
2022/03/18 03:55:56;;;;;;;8.07;7.13;;;5.50;90.90;;;;;;5041975;28;20474;-62
2022/03/18 03:58:23;;;;;;;9.20;7.13;;;5.50;90.80;;;;;;5042688;28;20457;-62
2022/03/18 04:00:50;;;;;;;8.17;7.00;;;5.40;90.80;;;;;;5042121;28;20458;-62
2022/03/18 04:03:17;;;;;;;9.07;7.20;;;5.40;90.90;;;;;;5040290;28;20435;-62
2022/03/18 04:05:45;;;;;;;11.10;7.80;;;5.40;90.90;;;;;;5040097;28;20466;-62
2022/03/18 04:08:11;;;;;;;9.23;7.83;;;5.30;90.90;;;;;;5040155;28;20489;-62
2022/03/18 04:10:42;;;;;;;8.73;7.83;;;5.30;90.90;;;;;;5041044;28;20462;-62
2022/03/18 04:13:10;;;;;;;9.53;7.93;;;5.30;91.00;;;;;;5042615;28;20812;-62
2022/03/18 04:15:36;;;;;;;7.90;6.40;;;5.30;90.90;;;;;;5042425;28;20466;-62
2022/03/18 04:18:03;;;;;;;10.90;7.90;;;5.30;90.90;;;;;;5039392;28;20442;-62
2022/03/18 04:20:32;;;;;;;7.83;6.87;;;5.30;90.90;;;;;;5041622;28;20454;-62
2022/03/18 04:23:00;;;;;;;9.10;7.53;;;5.30;91.00;;;;;;5041350;28;20447;-62
2022/03/18 04:25:27;;;;;;;7.60;6.83;;;5.20;90.90;;;;;;5041212;28;20481;-62
2022/03/18 04:27:54;;;;;;;8.03;7.37;;;5.20;90.90;;;;;;5038948;28;20445;-62
2022/03/18 04:30:21;;;;;;;7.70;6.90;;;5.20;90.80;;;;;;5039838;28;20446;-63
2022/03/18 04:32:48;;;;;;;10.47;7.10;;;5.20;90.80;;;;;;5040169;28;20458;-62
2022/03/18 04:35:14;;;;;;;7.47;6.70;;;5.10;90.70;;;;;;5038178;28;20473;-62
2022/03/18 04:37:43;;;;;;;8.80;7.00;;;5.10;90.70;;;;;;5038883;28;20842;-63
2022/03/18 04:40:13;;;;;;;7.97;6.50;;;5.10;90.80;;;;;;5037352;28;20457;-63
2022/03/18 04:42:40;;;;;;;12.37;7.40;;;5.10;90.70;;;;;;5037856;28;20439;-62
2022/03/18 04:45:08;;;;;;;10.33;7.57;;;5.00;90.70;;;;;;5036974;28;20473;-62
2022/03/18 04:47:35;;;;;;;10.20;7.47;;;5.00;90.80;;;;;;5037177;28;20554;-62
2022/03/18 04:50:03;;;;;;;8.60;6.73;;;5.00;90.90;;;;;;5037570;28;20486;-62
2022/03/18 04:52:30;;;;;;;9.70;7.77;;;5.00;91.00;;;;;;5037664;28;20457;-63
2022/03/18 04:54:57;;;;;;;9.00;7.40;;;5.00;91.10;;;;;;5037546;28;20462;-62
2022/03/18 04:57:25;;;;;;;8.77;7.43;;;5.00;91.00;;;;;;5037878;28;20443;-62
2022/03/18 04:59:53;;;;;;;8.23;7.43;;;5.00;90.90;;;;;;5037961;28;20520;-62
2022/03/18 05:02:21;;;;;;;8.90;7.17;;;4.90;90.80;;;;;;5038501;28;20451;-62
2022/03/18 05:04:48;;;;;;;11.40;7.80;;;4.90;90.90;;;;;;5041303;28;20852;-62
2022/03/18 05:07:15;;;;;;;10.13;7.23;;;4.80;90.90;;;;;;5037150;28;20954;-62
2022/03/18 05:09:43;;;;;;;8.80;7.30;;;4.80;90.90;;;;;;5035116;28;20897;-63
2022/03/18 05:12:12;;;;;;;7.67;6.33;;;4.80;90.70;;;;;;5034753;28;20445;-63
2022/03/18 05:14:41;;;;;;;8.23;6.80;;;4.80;90.70;;;;;;5034327;28;20492;-63
2022/03/18 05:17:09;;;;;;;7.50;6.80;;;4.70;90.70;;;;;;5034317;28;20451;-64
2022/03/18 05:19:36;;;;;;;8.57;7.00;;;4.70;90.80;;;;;;5034351;28;20446;-63
2022/03/18 05:22:04;;;;;;;8.70;6.93;;;4.70;90.90;;;;;;5034386;28;20454;-63
2022/03/18 05:24:31;;;;;;;10.07;7.70;;;4.70;90.90;;;;;;5034113;28;20474;-63
2022/03/18 05:26:58;;;;;;;10.87;7.90;;;4.70;90.80;;;;;;5034222;28;20454;-63
2022/03/18 05:29:27;;;;;;;7.90;7.10;;;4.70;90.70;;;;;;5033711;28;20478;-64
2022/03/18 05:31:55;;;;;;;8.70;7.70;;;4.70;90.80;;;;;;5034141;28;20521;-63
2022/03/18 05:34:23;;;;;;;11.63;7.10;;;4.70;90.90;;;;;;5034074;28;20474;-63
2022/03/18 05:36:50;;;;;;;11.87;6.63;;;4.70;90.90;;;;;;5034097;28;20482;-64
2022/03/18 05:39:17;;;;;;;11.80;6.73;;;4.70;90.80;;;;;;5034031;28;20455;-64
2022/03/18 05:41:44;;;;;;;11.27;6.93;;;4.70;90.70;;;;;;5034013;28;20827;-64
2022/03/18 05:44:11;;;;;;;8.17;7.37;;;4.70;90.70;;;;;;5033817;28;20470;-64
2022/03/18 05:46:38;;;;;;;12.17;7.33;;;4.70;90.70;;;;;;5033898;28;20438;-64
2022/03/18 05:49:07;;;;;;;8.30;7.20;;;4.60;90.70;;;;;;5034599;28;20490;-64
2022/03/18 05:51:34;;;;;;;9.23;7.47;;;4.60;90.70;;;;;;5033763;28;20457;-64
2022/03/18 05:54:01;;;;;;;9.83;6.87;;;4.60;90.70;;;;;;5033708;28;20460;-64
2022/03/18 05:59:12;;;;;;;11.60;8.27;;;4.50;90.90;;;;;;5034049;28;20402;-66
2022/03/18 06:01:41;;;;;;;8.60;7.70;;;4.60;91.00;;;;;;5033694;28;20522;-66
2022/03/18 06:04:10;;;;;;;11.20;7.93;;;4.50;90.70;;;;;;5033717;28;20462;-63
2022/03/18 06:06:38;;;;;;;7.30;6.60;;;4.50;90.80;;;;;;5033416;28;20953;-70
2022/03/18 06:11:49;;;;;;;10.23;7.43;;;4.60;91.00;;;;;;5033630;28;20813;-73
2022/03/18 06:14:16;;;;;;;16.30;8.67;;;4.60;91.20;;;;;;5033975;28;20489;-69
2022/03/18 06:16:43;;;;;;;10.43;7.70;;;4.60;91.40;;;;;;5034056;28;20450;-69
2022/03/18 06:19:11;;;;;;;7.73;6.80;;;4.60;91.30;;;;;;5033503;28;20964;-70
2022/03/18 06:21:38;;;;;;;12.17;7.73;;;4.60;91.20;;;;;;5033302;28;20485;-64
2022/03/18 06:24:05;;;;;;;8.50;7.07;;;4.60;91.10;;;;;;5033637;28;20446;-64
2022/03/18 06:26:33;;;;;;;9.80;6.53;;;4.60;91.00;;;;;;5033655;28;20469;-64
2022/03/18 06:29:00;;;;;;;9.03;6.80;;;4.60;91.00;;;;;;5033355;28;20558;-64
2022/03/18 06:31:27;;;;;;;10.10;7.20;;;4.60;91.00;;;;;;5033335;28;20453;-63
2022/03/18 06:33:54;;;;;;;11.30;8.07;;;4.60;91.10;;;;;;5033367;28;20453;-63
2022/03/18 06:36:22;;;;;;;9.47;7.40;;;4.60;91.20;;;;;;5033423;28;20509;-64
2022/03/18 06:38:49;;;;;;;11.60;7.47;;;4.70;91.40;;;;;;5033833;28;20442;-64
2022/03/18 06:41:16;;;;;;;11.13;8.10;;;4.70;91.90;;;;;;5034536;28;20445;-63
2022/03/18 06:43:44;;;;;;;10.10;8.03;;;4.70;91.60;;;;;;5034027;28;20446;-64
2022/03/18 06:46:11;;;;;;;12.07;8.37;;;4.80;91.70;;;;;;5034174;28;20474;-65
2022/03/18 06:48:38;;;;;;;10.00;8.50;;;4.80;92.10;;;;;;5034062;28;20917;-66
2022/03/18 06:51:05;;;;;;;10.83;8.10;;;4.80;91.70;;;;;;5035020;28;20430;-66
2022/03/18 06:53:34;;;;;;;12.50;8.70;;;4.80;91.80;;;;;;5034416;28;20902;-66
2022/03/18 06:56:00;;;;;;;13.23;8.40;;;4.80;92.00;;;;;;5036535;28;20841;-66
2022/03/18 06:58:28;;;;;;;12.00;9.03;;;4.90;92.30;;;;;;5034500;28;20431;-66
2022/03/18 07:00:55;;;;;;;9.10;7.10;;;4.90;92.50;;;;;;5038851;28;20439;-66
2022/03/18 07:03:22;;;;;;;11.77;8.73;;;4.90;92.70;;;;;;5039334;28;20457;-66
2022/03/18 07:05:49;;;;;;;12.63;9.00;;;4.90;92.80;;;;;;5042940;28;20467;-66
2022/03/18 07:08:16;;;;;;;12.10;8.20;;;5.00;93.00;;;;;;5041949;28;20456;-66
2022/03/18 07:10:44;;;;;;;9.97;8.97;;;5.00;93.10;;;;;;5034607;28;20516;-66
2022/03/18 07:13:11;;;;;;;11.17;9.07;;;5.10;93.30;;;;;;5033089;28;21021;-65
2022/03/18 07:15:38;;;;;;;12.57;8.60;;;5.10;93.40;;;;;;5033448;28;20470;-65
2022/03/18 07:18:04;;;;;;;11.03;8.07;;;5.10;93.50;;;;;;5033953;28;20443;-66
2022/03/18 07:20:32;;;;;;;14.33;10.27;;;5.20;93.70;;;;;;5033683;28;20423;-65
2022/03/18 07:23:00;;;;;;;13.07;8.10;;;5.30;93.90;;;;;;5034265;28;20454;-65
2022/03/18 07:25:28;;;;;;;19.60;9.43;;;5.40;94.00;;;;;;5033037;28;20462;-65
2022/03/18 07:27:56;;;;;;;9.23;8.30;;;5.50;94.00;;;;;;5032930;28;20790;-65
2022/03/18 07:30:23;;;;;;;13.90;8.37;;;5.60;94.00;;;;;;5032725;28;20880;-66
2022/03/18 07:32:50;;;;;;;14.70;8.53;;;5.70;94.00;;;;;;5034191;28;20457;-65
2022/03/18 07:35:17;;;;;;;13.30;8.70;;;5.80;94.00;;;;;;5036268;28;20462;-65
2022/03/18 07:37:43;;;;;;;9.73;8.33;;;5.90;93.90;;;;;;5036073;28;20905;-65
2022/03/18 07:40:11;;;;;;;16.80;9.00;;;6.10;93.90;;;;;;5035958;28;20834;-65
2022/03/18 07:42:42;;;;;;;14.30;8.50;;;6.20;93.80;;;;;;5036000;28;20848;-65
2022/03/18 07:45:11;;;;;;;14.27;7.63;;;6.30;93.80;;;;;;5035986;28;20498;-66
2022/03/18 07:47:38;;;;;;;9.00;6.10;;;6.50;93.90;;;;;;5036161;28;20431;-65
2022/03/18 07:50:06;;;;;;;10.53;7.10;;;6.60;93.70;;;;;;5035906;28;20980;-66
2022/03/18 07:52:33;;;;;;;15.03;8.23;;;6.70;93.50;;;;;;5035991;28;20509;-66
2022/03/18 07:55:00;;;;;;;12.60;6.57;;;6.90;93.50;;;;;;5035767;28;20470;-66
2022/03/18 07:57:26;;;;;;;11.13;6.73;;;7.00;93.30;;;;;;5035772;28;20447;-66
2022/03/18 07:59:53;;;;;;;13.53;7.27;;;7.20;93.00;;;;;;5035945;28;20820;-65
2022/03/18 08:02:21;;;;;;;9.80;6.63;;;7.30;92.90;;;;;;5035508;28;20458;-66
2022/03/18 08:04:52;;;;;;;10.93;6.67;;;7.50;93.20;;;;;;5035846;28;20556;-66
2022/03/18 08:07:19;;;;;;;11.27;6.27;;;7.60;92.80;;;;;;5035797;28;20443;-66
2022/03/18 08:09:46;;;;;;;13.27;7.17;;;7.70;92.50;;;;;;5035546;28;20620;-65
2022/03/18 08:12:17;;;;;;;8.80;5.67;;;7.90;92.30;;;;;;5035881;28;20431;-65
2022/03/18 08:14:43;;;;;;;6.90;5.10;;;8.10;92.00;;;;;;5035346;28;20993;-66
2022/03/18 08:17:10;;;;;;;11.33;7.17;;;8.20;91.50;;;;;;5035514;28;20450;-66
2022/03/18 08:19:38;;;;;;;10.57;6.27;;;8.40;91.40;;;;;;5035594;28;20423;-65
2022/03/18 08:22:07;;;;;;;10.27;6.03;;;8.50;91.40;;;;;;5035504;28;20469;-66
2022/03/18 08:24:33;;;;;;;9.33;6.40;;;8.60;91.10;;;;;;5035361;28;20474;-66
2022/03/18 08:27:00;;;;;;;8.00;6.10;;;8.70;91.20;;;;;;5035345;28;20434;-66
2022/03/18 08:29:27;;;;;;;10.30;6.13;;;8.80;91.30;;;;;;5035197;28;20530;-65
2022/03/18 08:31:54;;;;;;;9.67;6.30;;;8.90;91.40;;;;;;5035319;28;20447;-65
2022/03/18 08:34:21;;;;;;;6.87;5.60;;;9.10;91.30;;;;;;5035276;28;20478;-65
2022/03/18 08:36:49;;;;;;;12.10;7.13;;;9.20;91.10;;;;;;5035091;28;20454;-65
2022/03/18 08:39:16;;;;;;;7.60;5.77;;;9.30;90.90;;;;;;5035157;28;20454;-65
2022/03/18 08:41:43;;;;;;;15.73;6.73;;;9.40;91.10;;;;;;5034920;28;20937;-65
2022/03/18 08:44:10;;;;;;;11.53;6.10;;;9.50;91.50;;;;;;5033832;28;20471;-65
2022/03/18 08:46:36;;;;;;;11.03;5.43;;;9.60;91.40;;;;;;5035072;28;20459;-65
2022/03/18 08:49:03;;;;;;;8.20;5.30;;;9.70;91.20;;;;;;5034910;28;20435;-67
2022/03/18 08:51:30;;;;;;;8.87;5.90;;;9.80;90.70;;;;;;5034595;28;20918;-66
2022/03/18 08:53:58;;;;;;;18.60;5.67;;;9.90;90.40;;;;;;5034709;28;20453;-66
2022/03/18 08:56:25;;;;;;;15.07;6.43;;;9.90;90.20;;;;;;5034501;28;20435;-66
2022/03/18 08:58:52;;;;;;;12.00;5.47;;;10.00;89.20;;;;;;5034769;28;20446;-66
2022/03/18 09:01:18;;;;;;;8.33;4.83;;;10.20;89.20;;;;;;5035255;28;20465;-66
2022/03/18 09:03:47;;;;;;;11.03;5.60;;;10.30;88.30;;;;;;5034845;28;20537;-66
2022/03/18 09:06:14;;;;;;;14.60;5.17;;;10.40;87.30;;;;;;5034832;28;20478;-66
2022/03/18 09:08:41;;;;;;;8.43;4.80;;;10.50;85.40;;;;;;5035167;28;20474;-66
2022/03/18 09:11:09;;;;;;;12.07;5.27;;;10.50;85.00;;;;;;5034516;28;20490;-66
2022/03/18 09:13:36;;;;;;;9.47;5.00;;;10.60;84.20;;;;;;5034353;28;20938;-66
2022/03/18 09:16:04;;;;;;;9.27;5.03;;;10.70;84.10;;;;;;5034470;28;20482;-65
2022/03/18 09:18:31;;;;;;;10.37;5.30;;;10.80;84.30;;;;;;5034473;28;20457;-66
2022/03/18 09:20:58;;;;;;;16.57;5.13;;;10.90;83.70;;;;;;5034271;28;20450;-65
2022/03/18 09:23:25;;;;;;;13.53;5.33;;;11.10;83.90;;;;;;5034365;28;20800;-65
2022/03/18 09:25:52;;;;;;;16.40;5.60;;;11.20;83.20;;;;;;5034291;28;20462;-66
2022/03/18 09:28:20;;;;;;;12.20;4.93;;;11.30;82.40;;;;;;5034246;28;20438;-66
2022/03/18 09:30:47;;;;;;;13.10;5.27;;;11.40;82.00;;;;;;5034165;28;20486;-66
2022/03/18 09:33:14;;;;;;;8.60;4.70;;;11.60;80.90;;;;;;5034209;28;20490;-66
2022/03/18 09:35:42;;;;;;;13.50;5.40;;;11.70;80.80;;;;;;5034052;28;20478;-66
2022/03/18 09:38:08;;;;;;;9.07;3.87;;;11.90;79.80;;;;;;5033966;28;20443;-66
2022/03/18 09:40:36;;;;;;;7.00;4.23;;;12.10;77.90;;;;;;5033717;28;20818;-66
2022/03/18 09:43:06;;;;;;;8.60;3.70;;;12.20;76.40;;;;;;5034246;28;20435;-66
2022/03/18 09:45:36;;;;;;;13.13;3.90;;;12.40;74.60;;;;;;5034146;28;20470;-66
2022/03/18 09:48:06;;;;;;;8.10;3.50;;;12.50;74.30;;;;;;5034056;28;20422;-64
2022/03/18 09:50:33;;;;;;;11.27;3.80;;;12.70;73.40;;;;;;5033924;28;20482;-67
2022/03/18 09:53:00;;;;;;;10.10;4.30;;;12.80;71.50;;;;;;5033457;28;20937;-67
2022/03/18 09:55:29;;;;;;;9.33;4.80;;;13.10;71.70;;;;;;5033489;28;20478;-67
2022/03/18 09:57:56;;;;;;;11.00;4.30;;;13.30;71.00;;;;;;5033453;28;20450;-67
2022/03/18 10:00:23;;;;;;;9.77;3.97;;;13.60;71.00;;;;;;5033954;28;20442;-67
2022/03/18 10:03:07;;;;;;;7.23;4.23;;;13.90;69.00;;;;;;5033820;28;20454;-67
2022/03/18 10:05:34;;;;;;;7.40;3.80;;;14.40;66.70;;;;;;5033674;28;20474;-67
2022/03/18 10:08:01;;;;;;;6.23;3.50;;;14.80;64.40;;;;;;5033731;28;20442;-67
2022/03/18 10:10:28;;;;;;;7.50;3.60;;;15.30;61.90;;;;;;5033586;28;20890;-67
2022/03/18 10:13:01;;;;;;;7.90;2.80;;;15.70;59.10;;;;;;5033338;28;21024;-67
2022/03/18 10:15:30;;;;;;;3.50;2.23;;;16.10;57.30;;;;;;5034109;28;20550;-67
2022/03/18 10:17:59;;;;;;;3.10;1.97;;;16.50;54.10;;;;;;5033694;28;20442;-67
2022/03/18 10:20:29;;;;;;;4.87;1.60;;;16.80;52.40;;;;;;5033555;28;20453;-67
2022/03/18 10:22:58;;;;;;;4.60;2.03;;;17.10;50.60;;;;;;5033845;28;20937;-67
2022/03/18 10:25:35;;;;;;;3.60;1.70;;;17.40;47.30;;;;;;5033055;28;20508;-68
2022/03/18 10:28:02;;;;;;;2.40;1.27;;;17.80;47.30;;;;;;5033562;28;20446;-68
2022/03/18 10:30:29;;;;;;;2.70;1.40;;;18.20;46.20;;;;;;5033360;28;20486;-68
2022/03/18 10:32:57;;;;;;;4.63;1.77;;;18.70;45.00;;;;;;5033248;28;20490;-68
2022/03/18 10:38:28;;;;;;;5.30;2.00;;;19.60;41.90;;;;;;5033439;28;20411;-68
2022/03/18 10:40:55;;;;;;;5.80;1.57;;;20.10;39.50;;;;;;5033644;28;20474;-68
2022/03/18 10:43:22;;;;;;;2.10;1.60;;;20.40;39.40;;;;;;5032829;28;21021;-68
2022/03/18 10:46:05;;;;;;;4.60;2.20;;;20.90;39.80;;;;;;5032841;28;20466;-68
2022/03/18 10:48:34;;;;;;;4.83;1.83;;;21.50;37.70;;;;;;5033357;28;20461;-68
2022/03/18 10:51:06;;;;;;;3.73;1.90;;;22.00;35.50;;;;;;5033118;28;20490;-68
2022/03/18 10:53:35;;;;;;;2.00;1.50;;;22.50;35.00;;;;;;5032785;28;20446;-68
2022/03/18 10:56:05;;;;;;;2.37;1.80;;;23.10;32.60;;;;;;5033038;28;20482;-68
2022/03/18 10:58:38;;;;;;;2.67;1.60;;;23.60;32.40;;;;;;5031653;28;20439;-68
2022/03/18 11:01:05;;;;;;;4.43;2.30;;;24.10;30.70;;;;;;5032964;28;20435;-68
2022/03/18 11:03:35;;;;;;;2.87;1.80;;;24.40;29.70;;;;;;5033465;28;20810;-68
2022/03/18 11:06:03;;;;;;;5.23;1.93;;;24.80;28.60;;;;;;5033049;28;20470;-66
2022/03/18 11:08:40;;;;;;;5.73;2.20;;;25.10;28.80;;;;;;5035911;28;20435;-67
2022/03/18 11:11:10;;;;;;;4.73;2.60;;;25.50;28.30;;;;;;5036948;28;20481;-68
2022/03/18 11:13:46;;;;;;;6.53;2.43;;;25.80;27.50;;;;;;5036831;28;20434;-68
2022/03/18 11:16:16;;;;;;;3.27;2.60;;;26.20;27.70;;;;;;5036699;28;20532;-67
2022/03/18 11:18:51;;;;;;;2.43;2.23;;;26.50;27.10;;;;;;5037313;28;20868;-67
2022/03/18 11:21:21;;;;;;;8.70;2.97;;;26.80;26.40;;;;;;5035248;28;20512;-67
2022/03/18 11:23:51;;;;;;;3.70;2.83;;;27.00;25.50;;;;;;5036467;28;20446;-67
2022/03/18 11:26:20;;;;;;;3.80;2.33;;;27.10;25.60;;;;;;5036526;28;20849;-68
2022/03/18 11:29:07;;;;;;;2.90;2.00;;;27.30;25.30;;;;;;5036498;28;20443;-68
2022/03/18 11:31:36;;;;;;;4.10;2.20;;;27.50;24.90;;;;;;5037108;28;20470;-68
2022/03/18 11:34:11;;;;;;;4.80;2.30;;;27.80;24.20;;;;;;5036360;28;20462;-68
2022/03/18 11:36:44;;;;;;;3.90;2.53;;;28.10;23.70;;;;;;5036385;28;20446;-68
2022/03/18 11:39:11;;;;;;;4.33;2.87;;;28.30;24.00;;;;;;5036209;28;20430;-68
2022/03/18 11:41:56;;;;;;;3.60;2.47;;;28.60;24.10;;;;;;5036324;28;20430;-67
2022/03/18 11:44:53;;;;;;;3.00;2.33;;;29.00;23.20;;;;;;5036180;28;20523;-67
2022/03/18 11:47:44;;;;;;;2.07;1.80;;;29.40;22.80;;;;;;5036141;28;20484;-67
2022/03/18 11:50:50;;;;;;;2.20;1.77;;;29.80;22.30;;;;;;5036120;28;20438;-67
2022/03/18 11:53:51;;;;;;;5.40;2.13;;;30.20;21.70;;;;;;5036035;28;20889;-67
2022/03/18 11:56:21;;;;;;;3.00;2.17;;;30.60;21.30;;;;;;5036169;28;20433;-67
2022/03/18 11:58:48;;;;;;;2.77;2.13;;;30.80;20.70;;;;;;5036176;28;20547;-67
2022/03/18 12:01:40;;;;;;;3.33;2.20;;;31.20;20.70;;;;;;5036189;28;20466;-68
2022/03/18 12:04:08;;;;;;;3.20;2.00;;;31.50;19.10;;;;;;5035961;28;20422;-67
2022/03/18 12:07:11;;;;;;;3.50;2.20;;;31.70;19.20;;;;;;5035779;28;20454;-67
2022/03/18 12:09:54;;;;;;;2.20;2.00;;;32.00;19.20;;;;;;5035943;28;20457;-67
2022/03/18 12:12:22;;;;;;;3.83;2.07;;;32.30;18.70;;;;;;5035538;28;20477;-67
2022/03/18 12:14:51;;;;;;;2.40;2.20;;;32.60;18.60;;;;;;5035880;28;20480;-67
2022/03/18 12:17:18;;;;;;;6.80;3.17;;;32.90;18.10;;;;;;5035430;28;20965;-67
2022/03/18 12:19:53;;;;;;;6.90;2.60;;;33.10;18.80;;;;;;5035643;28;20452;-68
2022/03/18 12:22:22;;;;;;;4.10;2.70;;;33.40;18.20;;;;;;5035439;28;20500;-68
2022/03/18 12:24:50;;;;;;;2.73;2.13;;;33.60;18.00;;;;;;5035446;28;20530;-72
2022/03/18 12:27:19;;;;;;;4.60;2.43;;;33.70;18.20;;;;;;5035607;28;20437;-71
2022/03/18 12:29:46;;;;;;;4.23;2.40;;;34.10;17.70;;;;;;5035402;28;20941;-73
2022/03/18 12:32:15;;;;;;;3.57;2.60;;;34.50;17.80;;;;;;5035441;28;20485;-73
2022/03/18 12:34:51;;;;;;;4.90;2.60;;;34.80;16.70;;;;;;5035399;28;20573;-72
2022/03/18 12:37:20;;;;;;;4.57;2.50;;;35.10;16.70;;;;;;5035480;28;20207;-72
2022/03/18 12:39:49;;;;;;;6.03;2.53;;;35.20;16.50;;;;;;5034928;28;20690;-72
2022/03/18 12:42:17;;;;;;;3.08;2.10;;;35.30;16.20;;;;;;5035356;28;20203;-72
2022/03/18 12:44:47;;;;;;;2.23;1.70;;;35.40;16.20;;;;;;5035236;28;20254;-72
2022/03/18 12:47:16;;;;;;;2.00;1.55;;;35.60;15.70;;;;;;5035108;28;20209;-72
2022/03/18 12:49:42;;;;;;;2.20;1.83;;;35.70;16.00;;;;;;5035340;28;20250;-73
2022/03/18 12:52:12;;;;;;;1.80;1.60;;;35.80;14.90;;;;;;5034978;28;20808;-74
2022/03/18 12:54:40;;;;;;;3.25;1.80;;;35.90;15.00;;;;;;5036786;28;20265;-73
2022/03/18 12:57:11;;;;;;;1.33;1.20;;;36.00;14.60;;;;;;5035986;28;20230;-72
2022/03/18 12:59:40;;;;;;;3.17;1.42;;;36.00;14.10;;;;;;5034723;28;20578;-72
2022/03/18 13:02:07;;;;;;;3.08;1.33;;;35.80;14.70;;;;;;5034846;28;20681;-72
2022/03/18 13:04:34;;;;;;;2.53;1.40;;;35.70;14.90;;;;;;5035171;28;20318;-73
2022/03/18 13:07:01;;;;;;;6.32;1.60;;;35.70;15.40;;;;;;5035123;28;20191;-74
2022/03/18 13:09:28;;;;;;;4.13;1.50;;;35.80;15.20;;;;;;5035284;28;20207;-73
2022/03/18 13:11:55;;;;;;;3.67;1.60;;;35.80;13.80;;;;;;5034875;28;20223;-70
2022/03/18 13:14:35;;;;;;;6.55;1.70;;;35.80;14.30;;;;;;5035063;28;20233;-73